sensor_id;sensor_type;location;lat;lon;timestamp;P1;durP1;ratioP1;P2;durP2;ratioP2
83263;SDS011;73156;50.988;11.034;2024-01-07T00:01:11;26.53;;;15.73;;
83263;SDS011;73156;50.988;11.034;2024-01-07T00:03:36;29.27;;;16.33;;
83263;SDS011;73156;50.988;11.034;2024-01-07T00:06:01;27.33;;;16.00;;
83263;SDS011;73156;50.988;11.034;2024-01-07T00:08:27;23.60;;;13.80;;
83263;SDS011;73156;50.988;11.034;2024-01-07T00:10:52;27.30;;;14.33;;
83263;SDS011;73156;50.988;11.034;2024-01-07T00:13:17;25.43;;;15.40;;
83263;SDS011;73156;50.988;11.034;2024-01-07T00:15:43;25.85;;;14.73;;
83263;SDS011;73156;50.988;11.034;2024-01-07T00:18:08;26.67;;;14.70;;
83263;SDS011;73156;50.988;11.034;2024-01-07T00:20:33;25.73;;;14.48;;
83263;SDS011;73156;50.988;11.034;2024-01-07T00:22:59;25.85;;;14.40;;
83263;SDS011;73156;50.988;11.034;2024-01-07T00:25:24;24.85;;;14.00;;
83263;SDS011;73156;50.988;11.034;2024-01-07T00:27:49;26.93;;;13.77;;
83263;SDS011;73156;50.988;11.034;2024-01-07T00:30:16;25.33;;;14.57;;
83263;SDS011;73156;50.988;11.034;2024-01-07T00:32:41;25.20;;;13.65;;
83263;SDS011;73156;50.988;11.034;2024-01-07T00:35:07;25.67;;;13.85;;
83263;SDS011;73156;50.988;11.034;2024-01-07T00:37:32;23.40;;;14.43;;
83263;SDS011;73156;50.988;11.034;2024-01-07T00:40:00;23.02;;;13.73;;
83263;SDS011;73156;50.988;11.034;2024-01-07T00:42:25;27.05;;;14.15;;
83263;SDS011;73156;50.988;11.034;2024-01-07T00:44:50;24.33;;;13.52;;
83263;SDS011;73156;50.988;11.034;2024-01-07T00:47:15;24.10;;;14.10;;
83263;SDS011;73156;50.988;11.034;2024-01-07T00:49:41;21.13;;;13.00;;
83263;SDS011;73156;50.988;11.034;2024-01-07T00:52:06;22.73;;;13.40;;
83263;SDS011;73156;50.988;11.034;2024-01-07T00:54:31;24.60;;;13.68;;
83263;SDS011;73156;50.988;11.034;2024-01-07T00:56:58;20.95;;;12.77;;
83263;SDS011;73156;50.988;11.034;2024-01-07T00:59:23;24.95;;;13.27;;
83263;SDS011;73156;50.988;11.034;2024-01-07T01:01:48;23.10;;;12.90;;
83263;SDS011;73156;50.988;11.034;2024-01-07T01:04:13;22.90;;;13.67;;
83263;SDS011;73156;50.988;11.034;2024-01-07T01:06:39;23.25;;;12.88;;
83263;SDS011;73156;50.988;11.034;2024-01-07T01:09:04;21.37;;;12.80;;
83263;SDS011;73156;50.988;11.034;2024-01-07T01:11:29;22.53;;;12.83;;
83263;SDS011;73156;50.988;11.034;2024-01-07T01:13:55;21.55;;;12.68;;
83263;SDS011;73156;50.988;11.034;2024-01-07T01:16:20;19.67;;;11.73;;
83263;SDS011;73156;50.988;11.034;2024-01-07T01:18:45;22.38;;;12.40;;
83263;SDS011;73156;50.988;11.034;2024-01-07T01:21:10;21.93;;;12.53;;
83263;SDS011;73156;50.988;11.034;2024-01-07T01:23:37;20.02;;;12.10;;
83263;SDS011;73156;50.988;11.034;2024-01-07T01:26:02;21.33;;;12.33;;
83263;SDS011;73156;50.988;11.034;2024-01-07T01:28:27;21.25;;;12.68;;
83263;SDS011;73156;50.988;11.034;2024-01-07T01:30:52;22.20;;;13.10;;
83263;SDS011;73156;50.988;11.034;2024-01-07T01:33:18;20.57;;;12.30;;
83263;SDS011;73156;50.988;11.034;2024-01-07T01:35:43;19.50;;;12.00;;
83263;SDS011;73156;50.988;11.034;2024-01-07T01:38:08;20.70;;;12.32;;
83263;SDS011;73156;50.988;11.034;2024-01-07T01:40:33;20.47;;;11.97;;
83263;SDS011;73156;50.988;11.034;2024-01-07T01:42:59;18.25;;;11.23;;
83263;SDS011;73156;50.988;11.034;2024-01-07T01:45:24;19.37;;;10.97;;
83263;SDS011;73156;50.988;11.034;2024-01-07T01:47:50;18.02;;;10.95;;
83263;SDS011;73156;50.988;11.034;2024-01-07T01:50:15;16.58;;;10.05;;
83263;SDS011;73156;50.988;11.034;2024-01-07T01:52:42;19.58;;;11.45;;
83263;SDS011;73156;50.988;11.034;2024-01-07T01:55:09;17.48;;;10.98;;
83263;SDS011;73156;50.988;11.034;2024-01-07T01:57:34;15.93;;;10.73;;
83263;SDS011;73156;50.988;11.034;2024-01-07T02:00:02;20.13;;;11.07;;
83263;SDS011;73156;50.988;11.034;2024-01-07T02:02:30;19.77;;;11.75;;
83263;SDS011;73156;50.988;11.034;2024-01-07T02:04:56;18.73;;;10.57;;
83263;SDS011;73156;50.988;11.034;2024-01-07T02:07:22;17.75;;;10.68;;
83263;SDS011;73156;50.988;11.034;2024-01-07T02:09:47;19.90;;;11.77;;
83263;SDS011;73156;50.988;11.034;2024-01-07T02:12:12;17.93;;;11.30;;
83263;SDS011;73156;50.988;11.034;2024-01-07T02:14:38;18.93;;;10.70;;
83263;SDS011;73156;50.988;11.034;2024-01-07T02:17:04;19.52;;;10.65;;
83263;SDS011;73156;50.988;11.034;2024-01-07T02:19:30;18.02;;;10.35;;
83263;SDS011;73156;50.988;11.034;2024-01-07T02:21:55;17.23;;;10.57;;
83263;SDS011;73156;50.988;11.034;2024-01-07T02:24:20;14.80;;;9.73;;
83263;SDS011;73156;50.988;11.034;2024-01-07T02:26:45;19.40;;;10.77;;
83263;SDS011;73156;50.988;11.034;2024-01-07T02:29:11;17.52;;;10.20;;
83263;SDS011;73156;50.988;11.034;2024-01-07T02:31:39;16.90;;;10.95;;
83263;SDS011;73156;50.988;11.034;2024-01-07T02:34:04;21.45;;;10.88;;
83263;SDS011;73156;50.988;11.034;2024-01-07T02:36:30;19.77;;;11.37;;
83263;SDS011;73156;50.988;11.034;2024-01-07T02:38:55;18.77;;;11.83;;
83263;SDS011;73156;50.988;11.034;2024-01-07T02:41:20;21.03;;;11.67;;
83263;SDS011;73156;50.988;11.034;2024-01-07T02:43:46;20.63;;;12.88;;
83263;SDS011;73156;50.988;11.034;2024-01-07T02:46:11;21.15;;;12.00;;
83263;SDS011;73156;50.988;11.034;2024-01-07T02:48:36;19.42;;;12.00;;
83263;SDS011;73156;50.988;11.034;2024-01-07T02:51:02;23.80;;;13.30;;
83263;SDS011;73156;50.988;11.034;2024-01-07T02:53:30;20.05;;;11.95;;
83263;SDS011;73156;50.988;11.034;2024-01-07T02:55:55;21.00;;;12.77;;
83263;SDS011;73156;50.988;11.034;2024-01-07T02:58:21;23.50;;;13.15;;
83263;SDS011;73156;50.988;11.034;2024-01-07T03:00:46;19.97;;;12.13;;
83263;SDS011;73156;50.988;11.034;2024-01-07T03:03:11;19.23;;;11.35;;
83263;SDS011;73156;50.988;11.034;2024-01-07T03:05:36;20.58;;;12.80;;
83263;SDS011;73156;50.988;11.034;2024-01-07T03:08:02;21.20;;;12.60;;
83263;SDS011;73156;50.988;11.034;2024-01-07T03:10:27;20.40;;;11.95;;
83263;SDS011;73156;50.988;11.034;2024-01-07T03:12:52;19.90;;;11.47;;
83263;SDS011;73156;50.988;11.034;2024-01-07T03:15:17;17.97;;;11.57;;
83263;SDS011;73156;50.988;11.034;2024-01-07T03:17:43;21.83;;;12.67;;
83263;SDS011;73156;50.988;11.034;2024-01-07T03:20:09;21.13;;;13.18;;
83263;SDS011;73156;50.988;11.034;2024-01-07T03:22:35;19.65;;;12.13;;
83263;SDS011;73156;50.988;11.034;2024-01-07T03:25:00;20.85;;;12.60;;
83263;SDS011;73156;50.988;11.034;2024-01-07T03:27:25;20.57;;;11.90;;
83263;SDS011;73156;50.988;11.034;2024-01-07T03:29:51;19.93;;;11.77;;
83263;SDS011;73156;50.988;11.034;2024-01-07T03:32:16;19.42;;;11.52;;
83263;SDS011;73156;50.988;11.034;2024-01-07T03:34:42;20.80;;;11.25;;
83263;SDS011;73156;50.988;11.034;2024-01-07T03:37:07;18.70;;;11.33;;
83263;SDS011;73156;50.988;11.034;2024-01-07T03:39:33;19.80;;;11.40;;
83263;SDS011;73156;50.988;11.034;2024-01-07T03:41:58;19.27;;;10.90;;
83263;SDS011;73156;50.988;11.034;2024-01-07T03:44:24;16.73;;;10.87;;
83263;SDS011;73156;50.988;11.034;2024-01-07T03:46:49;16.57;;;10.60;;
83263;SDS011;73156;50.988;11.034;2024-01-07T03:49:14;20.80;;;11.30;;
83263;SDS011;73156;50.988;11.034;2024-01-07T03:51:39;15.82;;;10.52;;
83263;SDS011;73156;50.988;11.034;2024-01-07T03:54:05;19.87;;;11.37;;
83263;SDS011;73156;50.988;11.034;2024-01-07T03:56:30;18.17;;;10.90;;
83263;SDS011;73156;50.988;11.034;2024-01-07T03:58:55;17.73;;;10.73;;
83263;SDS011;73156;50.988;11.034;2024-01-07T04:01:21;18.70;;;11.13;;
83263;SDS011;73156;50.988;11.034;2024-01-07T04:03:46;17.43;;;10.63;;
83263;SDS011;73156;50.988;11.034;2024-01-07T04:06:11;15.97;;;10.00;;
83263;SDS011;73156;50.988;11.034;2024-01-07T04:08:36;17.60;;;10.27;;
83263;SDS011;73156;50.988;11.034;2024-01-07T04:11:02;15.53;;;9.33;;
83263;SDS011;73156;50.988;11.034;2024-01-07T04:13:27;15.02;;;9.55;;
83263;SDS011;73156;50.988;11.034;2024-01-07T04:15:52;18.50;;;10.73;;
83263;SDS011;73156;50.988;11.034;2024-01-07T04:18:18;17.90;;;9.53;;
83263;SDS011;73156;50.988;11.034;2024-01-07T04:20:43;17.65;;;10.07;;
83263;SDS011;73156;50.988;11.034;2024-01-07T04:23:08;15.43;;;9.73;;
83263;SDS011;73156;50.988;11.034;2024-01-07T04:25:33;17.53;;;10.47;;
83263;SDS011;73156;50.988;11.034;2024-01-07T04:27:59;17.50;;;10.30;;
83263;SDS011;73156;50.988;11.034;2024-01-07T04:30:24;16.42;;;9.63;;
83263;SDS011;73156;50.988;11.034;2024-01-07T04:32:50;15.80;;;9.00;;
83263;SDS011;73156;50.988;11.034;2024-01-07T04:35:15;17.47;;;9.47;;
83263;SDS011;73156;50.988;11.034;2024-01-07T04:37:41;14.63;;;8.93;;
83263;SDS011;73156;50.988;11.034;2024-01-07T04:40:07;15.73;;;9.38;;
83263;SDS011;73156;50.988;11.034;2024-01-07T04:42:32;13.35;;;8.05;;
83263;SDS011;73156;50.988;11.034;2024-01-07T04:44:58;14.67;;;8.83;;
83263;SDS011;73156;50.988;11.034;2024-01-07T04:49:52;13.82;;;8.48;;
83263;SDS011;73156;50.988;11.034;2024-01-07T04:52:18;14.50;;;8.45;;
83263;SDS011;73156;50.988;11.034;2024-01-07T04:54:43;15.47;;;9.63;;
83263;SDS011;73156;50.988;11.034;2024-01-07T04:57:08;14.63;;;8.77;;
83263;SDS011;73156;50.988;11.034;2024-01-07T04:59:34;15.13;;;8.63;;
83263;SDS011;73156;50.988;11.034;2024-01-07T05:01:59;14.77;;;8.93;;
83263;SDS011;73156;50.988;11.034;2024-01-07T05:04:24;12.63;;;7.63;;
83263;SDS011;73156;50.988;11.034;2024-01-07T05:06:49;13.33;;;7.77;;
83263;SDS011;73156;50.988;11.034;2024-01-07T05:09:15;12.55;;;7.78;;
83263;SDS011;73156;50.988;11.034;2024-01-07T05:11:40;13.33;;;7.97;;
83263;SDS011;73156;50.988;11.034;2024-01-07T05:14:05;13.40;;;8.20;;
83263;SDS011;73156;50.988;11.034;2024-01-07T05:16:30;13.75;;;7.72;;
83263;SDS011;73156;50.988;11.034;2024-01-07T05:18:56;12.30;;;7.90;;
83263;SDS011;73156;50.988;11.034;2024-01-07T05:21:22;13.20;;;7.75;;
83263;SDS011;73156;50.988;11.034;2024-01-07T05:23:47;11.83;;;7.20;;
83263;SDS011;73156;50.988;11.034;2024-01-07T05:26:12;13.93;;;7.60;;
83263;SDS011;73156;50.988;11.034;2024-01-07T05:28:37;13.43;;;8.05;;
83263;SDS011;73156;50.988;11.034;2024-01-07T05:31:03;14.13;;;7.67;;
83263;SDS011;73156;50.988;11.034;2024-01-07T05:33:28;11.85;;;7.50;;
83263;SDS011;73156;50.988;11.034;2024-01-07T05:35:53;13.50;;;8.10;;
83263;SDS011;73156;50.988;11.034;2024-01-07T05:38:19;11.43;;;7.37;;
83263;SDS011;73156;50.988;11.034;2024-01-07T05:40:44;13.18;;;8.23;;
83263;SDS011;73156;50.988;11.034;2024-01-07T05:43:09;11.93;;;7.07;;
83263;SDS011;73156;50.988;11.034;2024-01-07T05:45:35;11.32;;;7.05;;
83263;SDS011;73156;50.988;11.034;2024-01-07T05:48:00;10.83;;;7.00;;
83263;SDS011;73156;50.988;11.034;2024-01-07T05:50:25;13.17;;;7.77;;
83263;SDS011;73156;50.988;11.034;2024-01-07T05:52:50;11.93;;;7.43;;
83263;SDS011;73156;50.988;11.034;2024-01-07T05:55:16;11.27;;;6.75;;
83263;SDS011;73156;50.988;11.034;2024-01-07T05:57:42;12.43;;;6.97;;
83263;SDS011;73156;50.988;11.034;2024-01-07T06:00:08;11.60;;;6.80;;
83263;SDS011;73156;50.988;11.034;2024-01-07T06:02:35;11.00;;;6.82;;
83263;SDS011;73156;50.988;11.034;2024-01-07T06:05:01;10.87;;;6.27;;
83263;SDS011;73156;50.988;11.034;2024-01-07T06:07:28;11.70;;;6.70;;
83263;SDS011;73156;50.988;11.034;2024-01-07T06:09:53;12.00;;;7.10;;
83263;SDS011;73156;50.988;11.034;2024-01-07T06:12:18;11.07;;;6.53;;
83263;SDS011;73156;50.988;11.034;2024-01-07T06:14:43;11.93;;;6.60;;
83263;SDS011;73156;50.988;11.034;2024-01-07T06:17:09;11.63;;;7.23;;
83263;SDS011;73156;50.988;11.034;2024-01-07T06:19:34;10.98;;;6.47;;
83263;SDS011;73156;50.988;11.034;2024-01-07T06:21:59;11.68;;;7.30;;
83263;SDS011;73156;50.988;11.034;2024-01-07T06:24:25;11.83;;;6.97;;
83263;SDS011;73156;50.988;11.034;2024-01-07T06:26:50;11.27;;;6.97;;
83263;SDS011;73156;50.988;11.034;2024-01-07T06:29:15;11.77;;;6.37;;
83263;SDS011;73156;50.988;11.034;2024-01-07T06:31:44;10.70;;;7.13;;
83263;SDS011;73156;50.988;11.034;2024-01-07T06:34:13;8.98;;;5.88;;
83263;SDS011;73156;50.988;11.034;2024-01-07T06:36:40;10.43;;;5.97;;
83263;SDS011;73156;50.988;11.034;2024-01-07T06:39:08;10.10;;;6.30;;
83263;SDS011;73156;50.988;11.034;2024-01-07T06:41:34;11.13;;;6.68;;
83263;SDS011;73156;50.988;11.034;2024-01-07T06:44:00;10.70;;;6.47;;
83263;SDS011;73156;50.988;11.034;2024-01-07T06:46:25;10.27;;;6.55;;
83263;SDS011;73156;50.988;11.034;2024-01-07T06:48:50;10.77;;;6.40;;
83263;SDS011;73156;50.988;11.034;2024-01-07T06:51:15;10.65;;;6.68;;
83263;SDS011;73156;50.988;11.034;2024-01-07T06:53:41;10.30;;;6.55;;
83263;SDS011;73156;50.988;11.034;2024-01-07T06:56:06;11.10;;;6.63;;
83263;SDS011;73156;50.988;11.034;2024-01-07T06:58:31;10.38;;;6.57;;
83263;SDS011;73156;50.988;11.034;2024-01-07T07:00:57;9.88;;;6.18;;
83263;SDS011;73156;50.988;11.034;2024-01-07T07:03:23;11.93;;;7.10;;
83263;SDS011;73156;50.988;11.034;2024-01-07T07:05:48;10.40;;;6.55;;
83263;SDS011;73156;50.988;11.034;2024-01-07T07:08:13;9.43;;;6.17;;
83263;SDS011;73156;50.988;11.034;2024-01-07T07:10:38;11.53;;;6.63;;
83263;SDS011;73156;50.988;11.034;2024-01-07T07:13:04;10.83;;;6.43;;
83263;SDS011;73156;50.988;11.034;2024-01-07T07:15:29;10.87;;;6.17;;
83263;SDS011;73156;50.988;11.034;2024-01-07T07:17:55;11.97;;;6.40;;
83263;SDS011;73156;50.988;11.034;2024-01-07T07:20:20;9.90;;;6.30;;
83263;SDS011;73156;50.988;11.034;2024-01-07T07:22:46;10.60;;;6.63;;
83263;SDS011;73156;50.988;11.034;2024-01-07T07:25:11;11.23;;;6.43;;
83263;SDS011;73156;50.988;11.034;2024-01-07T07:27:36;10.18;;;6.10;;
83263;SDS011;73156;50.988;11.034;2024-01-07T07:30:02;11.13;;;6.57;;
83263;SDS011;73156;50.988;11.034;2024-01-07T07:32:29;8.95;;;6.03;;
83263;SDS011;73156;50.988;11.034;2024-01-07T07:34:54;10.53;;;6.40;;
83263;SDS011;73156;50.988;11.034;2024-01-07T07:37:19;9.95;;;6.03;;
83263;SDS011;73156;50.988;11.034;2024-01-07T07:39:44;10.80;;;6.03;;
83263;SDS011;73156;50.988;11.034;2024-01-07T07:42:10;10.45;;;6.05;;
83263;SDS011;73156;50.988;11.034;2024-01-07T07:44:35;11.80;;;6.53;;
83263;SDS011;73156;50.988;11.034;2024-01-07T07:47:01;8.98;;;6.53;;
83263;SDS011;73156;50.988;11.034;2024-01-07T07:49:26;10.25;;;6.40;;
83263;SDS011;73156;50.988;11.034;2024-01-07T07:51:51;11.25;;;6.45;;
83263;SDS011;73156;50.988;11.034;2024-01-07T07:54:16;10.20;;;5.50;;
83263;SDS011;73156;50.988;11.034;2024-01-07T07:56:42;9.82;;;5.78;;
83263;SDS011;73156;50.988;11.034;2024-01-07T07:59:07;9.55;;;6.18;;
83263;SDS011;73156;50.988;11.034;2024-01-07T08:01:33;10.50;;;5.78;;
83263;SDS011;73156;50.988;11.034;2024-01-07T08:03:59;10.35;;;6.40;;
83263;SDS011;73156;50.988;11.034;2024-01-07T08:06:24;9.50;;;6.20;;
83263;SDS011;73156;50.988;11.034;2024-01-07T08:08:49;10.57;;;6.22;;
83263;SDS011;73156;50.988;11.034;2024-01-07T08:11:15;10.63;;;6.22;;
83263;SDS011;73156;50.988;11.034;2024-01-07T08:13:40;9.73;;;6.07;;
83263;SDS011;73156;50.988;11.034;2024-01-07T08:16:06;10.02;;;5.97;;
83263;SDS011;73156;50.988;11.034;2024-01-07T08:18:32;10.10;;;6.03;;
83263;SDS011;73156;50.988;11.034;2024-01-07T08:20:57;9.05;;;5.50;;
83263;SDS011;73156;50.988;11.034;2024-01-07T08:23:26;10.65;;;6.70;;
83263;SDS011;73156;50.988;11.034;2024-01-07T08:25:52;9.88;;;5.57;;
83263;SDS011;73156;50.988;11.034;2024-01-07T08:28:17;8.73;;;5.97;;
83263;SDS011;73156;50.988;11.034;2024-01-07T08:30:43;9.02;;;5.75;;
83263;SDS011;73156;50.988;11.034;2024-01-07T08:33:09;10.05;;;6.25;;
83263;SDS011;73156;50.988;11.034;2024-01-07T08:35:35;9.48;;;6.10;;
83263;SDS011;73156;50.988;11.034;2024-01-07T08:38:00;12.20;;;6.53;;
83263;SDS011;73156;50.988;11.034;2024-01-07T08:40:25;9.97;;;6.27;;
83263;SDS011;73156;50.988;11.034;2024-01-07T08:42:50;8.63;;;5.32;;
83263;SDS011;73156;50.988;11.034;2024-01-07T08:45:16;10.20;;;5.50;;
83263;SDS011;73156;50.988;11.034;2024-01-07T08:47:41;10.43;;;6.57;;
83263;SDS011;73156;50.988;11.034;2024-01-07T08:50:06;8.93;;;5.63;;
83263;SDS011;73156;50.988;11.034;2024-01-07T08:52:32;9.73;;;5.82;;
83263;SDS011;73156;50.988;11.034;2024-01-07T08:55:00;8.60;;;5.85;;
83263;SDS011;73156;50.988;11.034;2024-01-07T08:57:26;11.00;;;6.90;;
83263;SDS011;73156;50.988;11.034;2024-01-07T08:59:51;10.80;;;6.97;;
83263;SDS011;73156;50.988;11.034;2024-01-07T09:02:17;9.10;;;5.88;;
83263;SDS011;73156;50.988;11.034;2024-01-07T09:04:42;10.13;;;6.10;;
83263;SDS011;73156;50.988;11.034;2024-01-07T09:07:08;9.52;;;5.78;;
83263;SDS011;73156;50.988;11.034;2024-01-07T09:09:33;9.27;;;5.40;;
83263;SDS011;73156;50.988;11.034;2024-01-07T09:11:58;10.60;;;5.80;;
83263;SDS011;73156;50.988;11.034;2024-01-07T09:14:25;9.63;;;5.82;;
83263;SDS011;73156;50.988;11.034;2024-01-07T09:16:50;10.35;;;5.70;;
83263;SDS011;73156;50.988;11.034;2024-01-07T09:19:16;10.20;;;5.70;;
83263;SDS011;73156;50.988;11.034;2024-01-07T09:21:42;9.73;;;6.25;;
83263;SDS011;73156;50.988;11.034;2024-01-07T09:24:08;9.18;;;5.50;;
83263;SDS011;73156;50.988;11.034;2024-01-07T09:26:33;10.10;;;5.75;;
83263;SDS011;73156;50.988;11.034;2024-01-07T09:28:59;10.33;;;5.67;;
83263;SDS011;73156;50.988;11.034;2024-01-07T09:31:24;9.63;;;6.00;;
83263;SDS011;73156;50.988;11.034;2024-01-07T09:33:49;11.00;;;6.23;;
83263;SDS011;73156;50.988;11.034;2024-01-07T09:36:14;10.57;;;5.18;;
83263;SDS011;73156;50.988;11.034;2024-01-07T09:38:41;7.85;;;4.45;;
83263;SDS011;73156;50.988;11.034;2024-01-07T09:41:06;6.50;;;3.92;;
83263;SDS011;73156;50.988;11.034;2024-01-07T09:43:32;8.70;;;4.47;;
83263;SDS011;73156;50.988;11.034;2024-01-07T09:45:58;7.93;;;4.57;;
83263;SDS011;73156;50.988;11.034;2024-01-07T09:48:24;12.45;;;4.85;;
83263;SDS011;73156;50.988;11.034;2024-01-07T09:50:50;32.80;;;8.65;;
83263;SDS011;73156;50.988;11.034;2024-01-07T09:53:17;47.75;;;10.88;;
83263;SDS011;73156;50.988;11.034;2024-01-07T09:58:16;42.42;;;9.52;;
83263;SDS011;73156;50.988;11.034;2024-01-07T10:00:41;28.80;;;8.03;;
83263;SDS011;73156;50.988;11.034;2024-01-07T10:03:07;30.13;;;9.27;;
83263;SDS011;73156;50.988;11.034;2024-01-07T10:05:32;27.40;;;8.45;;
83263;SDS011;73156;50.988;11.034;2024-01-07T10:07:57;25.00;;;8.27;;
83263;SDS011;73156;50.988;11.034;2024-01-07T10:10:23;25.03;;;8.03;;
83263;SDS011;73156;50.988;11.034;2024-01-07T10:12:48;30.70;;;8.88;;
83263;SDS011;73156;50.988;11.034;2024-01-07T10:15:13;20.83;;;7.32;;
83263;SDS011;73156;50.988;11.034;2024-01-07T10:17:42;29.55;;;8.75;;
83263;SDS011;73156;50.988;11.034;2024-01-07T10:20:08;27.50;;;7.97;;
83263;SDS011;73156;50.988;11.034;2024-01-07T10:22:35;27.98;;;8.40;;
83263;SDS011;73156;50.988;11.034;2024-01-07T10:25:01;25.35;;;8.38;;
83263;SDS011;73156;50.988;11.034;2024-01-07T10:27:27;28.00;;;8.52;;
83263;SDS011;73156;50.988;11.034;2024-01-07T10:29:52;31.77;;;8.70;;
83263;SDS011;73156;50.988;11.034;2024-01-07T10:32:20;23.30;;;8.10;;
83263;SDS011;73156;50.988;11.034;2024-01-07T10:34:46;19.42;;;8.38;;
83263;SDS011;73156;50.988;11.034;2024-01-07T10:37:14;25.50;;;8.15;;
83263;SDS011;73156;50.988;11.034;2024-01-07T10:39:40;20.10;;;8.43;;
83263;SDS011;73156;50.988;11.034;2024-01-07T10:42:05;26.17;;;8.38;;
83263;SDS011;73156;50.988;11.034;2024-01-07T10:44:32;16.40;;;7.85;;
83263;SDS011;73156;50.988;11.034;2024-01-07T10:46:58;21.15;;;8.52;;
83263;SDS011;73156;50.988;11.034;2024-01-07T10:49:24;21.42;;;9.88;;
83263;SDS011;73156;50.988;11.034;2024-01-07T10:52:25;21.20;;;8.57;;
83263;SDS011;73156;50.988;11.034;2024-01-07T10:54:44;23.95;;;9.57;;
83263;SDS011;73156;50.988;11.034;2024-01-07T10:57:32;23.13;;;9.43;;
83263;SDS011;73156;50.988;11.034;2024-01-07T11:00:00;23.08;;;9.43;;
83263;SDS011;73156;50.988;11.034;2024-01-07T11:02:31;20.10;;;8.70;;
83263;SDS011;73156;50.988;11.034;2024-01-07T11:05:08;22.38;;;9.65;;
83263;SDS011;73156;50.988;11.034;2024-01-07T11:07:41;24.70;;;9.70;;
83263;SDS011;73156;50.988;11.034;2024-01-07T11:10:25;24.17;;;9.93;;
83263;SDS011;73156;50.988;11.034;2024-01-07T11:12:56;23.27;;;9.57;;
83263;SDS011;73156;50.988;11.034;2024-01-07T11:18:21;19.60;;;9.25;;
83263;SDS011;73156;50.988;11.034;2024-01-07T11:20:48;21.77;;;9.85;;
83263;SDS011;73156;50.988;11.034;2024-01-07T11:23:33;19.23;;;8.88;;
83263;SDS011;73156;50.988;11.034;2024-01-07T11:26:01;21.17;;;10.20;;
83263;SDS011;73156;50.988;11.034;2024-01-07T11:31:18;20.65;;;8.73;;
83263;SDS011;73156;50.988;11.034;2024-01-07T11:33:45;19.75;;;9.30;;
83263;SDS011;73156;50.988;11.034;2024-01-07T11:36:12;16.55;;;9.32;;
83263;SDS011;73156;50.988;11.034;2024-01-07T11:38:42;17.60;;;9.02;;
83263;SDS011;73156;50.988;11.034;2024-01-07T11:41:13;21.75;;;9.30;;
83263;SDS011;73156;50.988;11.034;2024-01-07T11:43:55;16.33;;;10.00;;
83263;SDS011;73156;50.988;11.034;2024-01-07T11:46:22;17.98;;;9.25;;
83263;SDS011;73156;50.988;11.034;2024-01-07T11:48:48;15.77;;;9.30;;
83263;SDS011;73156;50.988;11.034;2024-01-07T11:51:15;19.00;;;8.93;;
83263;SDS011;73156;50.988;11.034;2024-01-07T11:53:41;17.65;;;8.75;;
83263;SDS011;73156;50.988;11.034;2024-01-07T11:56:08;17.80;;;9.25;;
83263;SDS011;73156;50.988;11.034;2024-01-07T11:58:34;16.08;;;9.30;;
83263;SDS011;73156;50.988;11.034;2024-01-07T12:00:59;17.10;;;8.63;;
83263;SDS011;73156;50.988;11.034;2024-01-07T12:03:24;18.77;;;8.77;;
83263;SDS011;73156;50.988;11.034;2024-01-07T12:05:49;14.73;;;8.20;;
83263;SDS011;73156;50.988;11.034;2024-01-07T12:08:15;16.58;;;8.95;;
83263;SDS011;73156;50.988;11.034;2024-01-07T12:10:41;16.13;;;8.30;;
83263;SDS011;73156;50.988;11.034;2024-01-07T12:13:06;18.75;;;9.20;;
83263;SDS011;73156;50.988;11.034;2024-01-07T12:15:33;14.07;;;8.15;;
83263;SDS011;73156;50.988;11.034;2024-01-07T12:17:59;19.58;;;9.55;;
83263;SDS011;73156;50.988;11.034;2024-01-07T12:20:26;17.02;;;8.73;;
83263;SDS011;73156;50.988;11.034;2024-01-07T12:22:55;17.63;;;8.48;;
83263;SDS011;73156;50.988;11.034;2024-01-07T12:25:22;16.73;;;9.70;;
83263;SDS011;73156;50.988;11.034;2024-01-07T12:27:50;16.55;;;8.73;;
83263;SDS011;73156;50.988;11.034;2024-01-07T12:30:18;21.23;;;9.90;;
83263;SDS011;73156;50.988;11.034;2024-01-07T12:32:44;19.65;;;9.68;;
83263;SDS011;73156;50.988;11.034;2024-01-07T12:35:10;19.65;;;9.70;;
83263;SDS011;73156;50.988;11.034;2024-01-07T12:37:36;18.90;;;9.63;;
83263;SDS011;73156;50.988;11.034;2024-01-07T12:40:02;17.60;;;9.68;;
83263;SDS011;73156;50.988;11.034;2024-01-07T12:42:29;16.63;;;10.00;;
83263;SDS011;73156;50.988;11.034;2024-01-07T12:44:54;17.67;;;9.65;;
83263;SDS011;73156;50.988;11.034;2024-01-07T12:47:19;17.70;;;10.20;;
83263;SDS011;73156;50.988;11.034;2024-01-07T12:49:45;18.07;;;9.67;;
83263;SDS011;73156;50.988;11.034;2024-01-07T12:52:10;19.80;;;10.07;;
83263;SDS011;73156;50.988;11.034;2024-01-07T12:54:36;18.85;;;11.23;;
83263;SDS011;73156;50.988;11.034;2024-01-07T12:57:05;20.73;;;11.00;;
83263;SDS011;73156;50.988;11.034;2024-01-07T12:59:30;21.63;;;10.85;;
83263;SDS011;73156;50.988;11.034;2024-01-07T13:01:56;19.92;;;10.02;;
83263;SDS011;73156;50.988;11.034;2024-01-07T13:04:21;21.92;;;10.40;;
83263;SDS011;73156;50.988;11.034;2024-01-07T13:06:47;20.85;;;11.27;;
83263;SDS011;73156;50.988;11.034;2024-01-07T13:09:12;23.30;;;12.43;;
83263;SDS011;73156;50.988;11.034;2024-01-07T13:11:37;24.60;;;10.87;;
83263;SDS011;73156;50.988;11.034;2024-01-07T13:14:03;26.00;;;11.20;;
83263;SDS011;73156;50.988;11.034;2024-01-07T13:16:28;25.52;;;11.88;;
83263;SDS011;73156;50.988;11.034;2024-01-07T13:18:54;29.00;;;12.50;;
83263;SDS011;73156;50.988;11.034;2024-01-07T13:21:20;30.00;;;14.10;;
83263;SDS011;73156;50.988;11.034;2024-01-07T13:23:46;29.60;;;13.52;;
83263;SDS011;73156;50.988;11.034;2024-01-07T13:26:12;36.45;;;14.85;;
83263;SDS011;73156;50.988;11.034;2024-01-07T13:28:38;29.60;;;13.77;;
83263;SDS011;73156;50.988;11.034;2024-01-07T13:31:03;34.03;;;13.97;;
83263;SDS011;73156;50.988;11.034;2024-01-07T13:33:29;29.73;;;13.15;;
83263;SDS011;73156;50.988;11.034;2024-01-07T13:35:54;32.30;;;13.15;;
83263;SDS011;73156;50.988;11.034;2024-01-07T13:38:20;29.23;;;13.35;;
83263;SDS011;73156;50.988;11.034;2024-01-07T13:40:46;42.45;;;13.75;;
83263;SDS011;73156;50.988;11.034;2024-01-07T13:43:12;28.35;;;13.63;;
83263;SDS011;73156;50.988;11.034;2024-01-07T13:45:37;28.30;;;12.30;;
83263;SDS011;73156;50.988;11.034;2024-01-07T13:48:02;29.00;;;12.90;;
83263;SDS011;73156;50.988;11.034;2024-01-07T13:50:28;29.20;;;13.52;;
83263;SDS011;73156;50.988;11.034;2024-01-07T13:52:53;30.67;;;11.70;;
83263;SDS011;73156;50.988;11.034;2024-01-07T13:55:19;31.17;;;13.40;;
83263;SDS011;73156;50.988;11.034;2024-01-07T13:57:44;30.65;;;12.65;;
83263;SDS011;73156;50.988;11.034;2024-01-07T14:00:09;30.13;;;13.20;;
83263;SDS011;73156;50.988;11.034;2024-01-07T14:02:39;27.42;;;12.52;;
83263;SDS011;73156;50.988;11.034;2024-01-07T14:05:05;28.95;;;12.88;;
83263;SDS011;73156;50.988;11.034;2024-01-07T14:07:31;30.30;;;13.93;;
83263;SDS011;73156;50.988;11.034;2024-01-07T14:09:58;24.63;;;12.05;;
83263;SDS011;73156;50.988;11.034;2024-01-07T14:12:24;31.00;;;11.50;;
83263;SDS011;73156;50.988;11.034;2024-01-07T14:14:49;28.20;;;12.07;;
83263;SDS011;73156;50.988;11.034;2024-01-07T14:17:15;29.33;;;11.93;;
83263;SDS011;73156;50.988;11.034;2024-01-07T14:19:41;27.73;;;11.10;;
83263;SDS011;73156;50.988;11.034;2024-01-07T14:24:33;24.87;;;11.33;;